Аэропорт: Гянджа. Гянджа

ICAO: UBBG

METAR:
2021-10-23 00:30:00
UBBG 230030Z 25006KT 9999 FEW100 07/05 Q1022 R12/CLRD// NOSIG
METAR:
2021-10-22 23:00:00
TAF UBBG 222300Z 2300/2324 VRB04KT 9999 FEW030 SCT100 TX20/2312Z TN07/2302Z TEMPO 2300/2303 24008KT BECMG 2308/2310 08008KT BECMG 2317/2319 22008KT